Roberts, MT (59070)

11:25 PM MDT on September 14, 2014 (GMT -0600)
Willow Creek Road | Change Station
CLOSE
Current Station
Personal Weather Station
Location: Red Lodge, MT
Elevation: 5102 ft
Nearby Weather Stations

Elev 5102 ft 45.27 °N, 109.26 °W | Updated 7 minutes ago

Clear
Clear
40.8 °F
Feels Like 41 °F
N
0.0
Wind Variable Wind from ESE

Today
High -- | Low -- °F
--% Chance of Precip.
Yesterday
High -- | Low -- °F
Precip. -- in
6:54 AM 7:29 PM
Waning Gibbous, 59% visible
Pressure 30.21 in
Visibility 10.0 miles
Clouds Clear
Windchill 41 °F
Dew Point 35 °F
Humidity 80%
Rainfall 0.00 in
Snow Depth 0 in , 0 in , 0 in
UV 0 out of 12
Pollen 5.70 out of 12
Air Quality Not available.
Flu Activity Not available.
METAR KBIL 150453Z 03004KT 10SM CLR 11/03 A3021 RMK AO2 SLP229 T01060028 $

More Conditions Fewer Conditions

Pressure 30.21 in
Visibility 10.0 miles
Clouds Clear
Windchill 41 °F
Dew Point 35 °F
Humidity 80%
Rainfall 0.00 in
Snow Depth 0 in , 0 in , 0 in
UV 0 out of 12
Pollen 5.70 out of 12
Air Quality Not available.
Flu Activity Not available.
METAR KBIL 150453Z 03004KT 10SM CLR 11/03 A3021 RMK AO2 SLP229 T01060028 $

More Conditions Fewer Conditions

10-Day Weather Forecast

Almanac

Astronomy

Sep. 14, 2014 Rise Set
Actual Time 6:54 AM MDT 7:29 PM MDT
Civil Twilight 6:24 AM MDT 7:59 PM MDT
Nautical Twilight 5:49 AM MDT 8:34 PM MDT
Astronomical Twilight 5:12 AM MDT 9:10 PM MDT
Moon 11:08 PM MDT (9/14) 1:19 PM MDT (9/14)
Length of Visible Light 13h 34m
Length of Day
12h 35m
Tomorrow will be 3m 9s shorter.
Waning Gibbous, 59% of the Moon is Illuminated
Sep 15
Waning Gibbous
Sep 15
Last Quarter
Sep 24
New
Oct 1
First Quarter
Oct 8
Full

Yesterday's Extremes

State Highs State Lows

Community

WunderPhotos

Upload Photos

1,753,414 photos uploaded!

Nearby

Snow Depth

Station Depth Elevation
Many Glacier 0 in 4900 ft
Warm Springs 0 in 7800 ft
Tizer Basin 0 in 6840 ft
Lick Creek 0 in 6860 ft
Deadman Creek 0 in 6450 ft

Earthquake Activity

City Distance Mag. Time & Date
No recent earthquake activity has been reported nearby.
Minimum magnitude displayed is 2.5.

Coastal Water Temperatures

Place Temperature
No Stations Reporting

Nearby Weather Stations